Time;durP1;ratioP1;P1;durP2;ratioP2;P2;SDS_P1;SDS_P2;PMS_P1;PMS_P2;Temp;Humidity;BMP_temperature;BMP_pressure;BME280_temperature;BME280_humidity;BME280_pressure;Samples;Min_cycle;Max_cycle;Signal;HPM_P1;HPM_P2
2023/10/19 00:02:07;;;;;;;5.38;0.70;;;14.80;99.90;;;;;;5031140;28;20377;-53
2023/10/19 00:04:34;;;;;;;4.20;0.85;;;14.80;99.90;;;;;;5031748;28;20065;-52
2023/10/19 00:07:01;;;;;;;2.38;0.50;;;14.80;99.90;;;;;;5031220;28;20021;-52
2023/10/19 00:09:35;;;;;;;3.15;0.73;;;14.90;99.90;;;;;;5031454;28;20029;-54
2023/10/19 00:12:02;;;;;;;7.78;0.90;;;14.90;99.90;;;;;;5023564;28;20021;-53
2023/10/19 00:14:27;;;;;;;4.45;0.90;;;14.90;99.90;;;;;;5030190;28;20021;-53
2023/10/19 00:16:54;;;;;;;5.35;0.73;;;14.80;99.90;;;;;;5029127;28;20447;-52
2023/10/19 00:19:20;;;;;;;4.35;0.90;;;14.90;99.90;;;;;;5030716;28;20021;-52
2023/10/19 00:21:54;;;;;;;4.30;0.70;;;14.90;99.90;;;;;;5031474;28;20056;-56
2023/10/19 00:24:23;;;;;;;1.95;0.55;;;14.90;99.90;;;;;;5026422;28;20034;-47
2023/10/19 00:26:51;;;;;;;6.47;1.08;;;14.90;99.90;;;;;;5030646;28;20036;-54
2023/10/19 00:29:40;;;;;;;3.53;0.70;;;14.90;99.90;;;;;;5029415;28;20028;-51
2023/10/19 00:32:06;;;;;;;4.78;0.90;;;14.90;99.90;;;;;;5028681;28;20049;-50
2023/10/19 00:34:32;;;;;;;4.53;0.95;;;15.00;99.90;;;;;;5029366;28;20382;-52
2023/10/19 00:37:01;;;;;;;3.05;1.05;;;15.00;99.90;;;;;;5030774;28;20028;-50
2023/10/19 00:39:27;;;;;;;1.27;0.60;;;15.00;99.90;;;;;;5030833;28;20034;-50
2023/10/19 00:41:57;;;;;;;2.78;0.80;;;15.10;99.90;;;;;;5031056;28;20056;-47
2023/10/19 00:44:35;;;;;;;7.18;1.25;;;15.10;99.90;;;;;;5030592;28;20481;-48
2023/10/19 00:47:07;;;;;;;6.32;1.13;;;15.20;99.90;;;;;;5027837;28;20032;-51
2023/10/19 00:49:33;;;;;;;3.47;0.80;;;15.20;99.90;;;;;;5021570;28;20378;-52
2023/10/19 00:52:19;;;;;;;4.07;1.15;;;15.30;99.90;;;;;;5014872;28;20048;-51
2023/10/19 00:57:19;;;;;;;;;;;15.40;99.90;;;;;;5012001;28;20029;-51
2023/10/19 01:00:00;;;;;;;4.28;0.95;;;15.40;99.90;;;;;;5010294;28;19905;-51
2023/10/19 01:04:59;;;;;;;4.45;0.65;;;15.50;99.90;;;;;;5011378;28;20354;-54
2023/10/19 01:07:29;;;;;;;2.47;0.40;;;15.50;99.90;;;;;;5017023;28;20501;-51
2023/10/19 01:10:00;;;;;;;4.50;0.70;;;15.50;99.90;;;;;;5014574;28;20038;-50
2023/10/19 01:12:33;;;;;;;4.45;0.50;;;15.50;99.90;;;;;;5011464;28;20038;-50
2023/10/19 01:15:18;;;;;;;2.45;0.43;;;15.50;99.90;;;;;;5012606;28;20026;-50
2023/10/19 01:17:44;;;;;;;3.20;0.70;;;15.60;99.90;;;;;;5022124;28;20014;-49
2023/10/19 01:20:20;;;;;;;5.53;0.68;;;15.50;99.90;;;;;;5012764;28;20484;-49
2023/10/19 01:23:20;;;;;;;5.28;1.08;;;15.60;99.90;;;;;;5011206;28;20168;-51
2023/10/19 01:25:50;;;;;;;9.40;2.35;;;15.50;99.90;;;;;;5012692;28;20038;-55
2023/10/19 01:28:19;;;;;;;3.67;0.80;;;15.60;99.90;;;;;;5012096;28;20030;-52
2023/10/19 01:30:46;;;;;;;7.43;1.02;;;15.60;99.90;;;;;;5013609;28;20092;-48
2023/10/19 01:33:18;;;;;;;6.07;1.52;;;15.60;99.90;;;;;;5012981;28;20046;-47
2023/10/19 01:38:33;;;;;;;6.75;1.50;;;15.60;99.90;;;;;;5012093;28;20162;-49
2023/10/19 01:41:13;;;;;;;13.00;2.00;;;15.60;99.90;;;;;;5010462;28;20033;-47
2023/10/19 01:43:42;;;;;;;8.02;1.50;;;15.60;99.90;;;;;;5012304;28;20022;-57
2023/10/19 01:46:12;;;;;;;9.85;1.70;;;15.60;99.90;;;;;;5010748;28;20512;-48
2023/10/19 01:48:38;;;;;;;;;;;15.70;99.90;;;;;;5018020;28;20450;-50
2023/10/19 01:51:05;;;;;;;10.40;1.42;;;15.70;99.90;;;;;;5018992;28;20292;-51
2023/10/19 01:53:36;;;;;;;9.43;1.35;;;15.70;99.90;;;;;;5013198;28;20104;-49
2023/10/19 01:56:05;;;;;;;3.55;1.10;;;15.70;99.90;;;;;;5011989;28;20480;-53
2023/10/19 01:58:34;;;;;;;11.48;1.30;;;15.70;99.90;;;;;;5013238;28;20072;-48
2023/10/19 02:03:37;;;;;;;4.80;1.10;;;15.70;99.90;;;;;;5011225;28;20038;-52
2023/10/19 02:06:51;;;;;;;7.07;1.35;;;15.60;99.90;;;;;;5015014;28;20097;-51
2023/10/19 02:09:09;;;;;;;7.53;1.30;;;15.60;99.90;;;;;;5015644;28;20401;-54
2023/10/19 02:11:37;;;;;;;3.38;0.90;;;15.70;99.90;;;;;;5017324;28;20303;-51
2023/10/19 02:14:13;;;;;;;7.90;1.67;;;15.70;99.90;;;;;;5016817;28;20485;-50
2023/10/19 02:16:39;;;;;;;11.63;1.73;;;15.70;99.90;;;;;;5024653;28;20037;-49
2023/10/19 02:19:05;;;;;;;6.57;1.45;;;15.70;99.90;;;;;;5021120;28;20124;-50
2023/10/19 02:21:30;;;;;;;5.05;1.30;;;15.70;99.90;;;;;;5018178;28;20529;-51
2023/10/19 02:23:59;;;;;;;10.20;1.60;;;15.70;99.90;;;;;;5015431;28;20018;-48
2023/10/19 02:26:28;;;;;;;17.37;2.17;;;15.60;99.90;;;;;;5015662;28;20076;-53
2023/10/19 02:28:55;;;;;;;7.35;1.55;;;15.70;99.90;;;;;;5016556;28;20252;-47
2023/10/19 02:31:23;;;;;;;7.95;1.40;;;15.70;99.90;;;;;;5016042;28;20068;-52
2023/10/19 02:33:58;;;;;;;5.18;1.60;;;15.70;99.90;;;;;;5016492;28;20046;-48
2023/10/19 02:36:30;;;;;;;9.70;1.65;;;15.70;99.90;;;;;;5016769;28;20050;-52
2023/10/19 02:39:07;;;;;;;8.10;1.35;;;15.70;99.90;;;;;;5013098;28;20281;-53
2023/10/19 02:41:39;;;;;;;11.50;2.03;;;15.70;99.90;;;;;;5017795;28;20026;-49
2023/10/19 02:46:45;;;;;;;9.27;1.45;;;15.70;99.90;;;;;;5019184;28;20044;-56
2023/10/19 02:49:13;;;;;;;7.78;1.40;;;15.70;99.90;;;;;;5013925;28;20022;-53
2023/10/19 02:51:46;;;;;;;10.35;1.33;;;15.70;99.90;;;;;;5017354;28;20034;-52
2023/10/19 02:54:20;;;;;;;8.63;1.38;;;15.70;99.90;;;;;;5014739;28;20017;-52
2023/10/19 02:56:51;;;;;;;7.72;1.15;;;15.70;99.90;;;;;;5016561;28;20029;-52
2023/10/19 02:59:22;;;;;;;6.13;0.95;;;15.60;99.90;;;;;;5015659;28;20457;-51
2023/10/19 03:01:47;;;;;;;9.45;1.27;;;15.60;99.90;;;;;;5013053;28;20030;-52
2023/10/19 03:04:13;;;;;;;10.93;1.42;;;15.70;99.90;;;;;;5018091;28;20025;-54
2023/10/19 03:06:40;;;;;;;11.00;2.17;;;15.70;99.90;;;;;;5013622;28;20463;-55
2023/10/19 03:09:13;;;;;;;11.93;1.58;;;15.70;99.90;;;;;;5015125;28;20037;-48
2023/10/19 03:11:44;;;;;;;12.80;1.65;;;15.70;99.90;;;;;;5013941;28;20034;-52
2023/10/19 03:14:11;;;;;;;16.67;1.63;;;15.70;99.90;;;;;;5016099;28;20072;-47
2023/10/19 03:16:38;;;;;;;11.52;1.70;;;15.70;99.90;;;;;;5014095;28;20053;-52
2023/10/19 03:19:04;;;;;;;8.50;1.85;;;15.70;99.90;;;;;;5015600;28;20088;-48
2023/10/19 03:21:34;;;;;;;12.70;1.73;;;15.70;99.90;;;;;;5015926;28;20029;-49
2023/10/19 03:24:12;;;;;;;13.23;1.83;;;15.80;99.90;;;;;;5014208;28;20037;-54
2023/10/19 03:26:40;;;;;;;7.88;1.48;;;15.80;99.90;;;;;;5015881;28;20018;-51
2023/10/19 03:29:12;;;;;;;13.43;2.00;;;15.80;99.90;;;;;;5014459;28;20111;-52
2023/10/19 03:31:45;;;;;;;12.98;2.28;;;15.80;99.90;;;;;;5014886;28;20037;-49
2023/10/19 03:34:16;;;;;;;15.77;2.10;;;15.80;99.90;;;;;;5030709;28;20053;-52
2023/10/19 03:36:42;;;;;;;14.02;2.38;;;15.80;99.90;;;;;;5025015;28;20040;-51
2023/10/19 03:39:12;;;;;;;13.35;2.00;;;15.80;99.90;;;;;;5029095;28;20048;-54
2023/10/19 03:41:41;;;;;;;18.23;2.42;;;15.80;99.90;;;;;;5031063;28;20129;-53
2023/10/19 03:44:13;;;;;;;12.90;1.95;;;15.80;99.90;;;;;;5024209;28;20053;-52
2023/10/19 03:46:45;;;;;;;14.43;1.73;;;15.80;99.90;;;;;;5029937;28;20052;-52
2023/10/19 03:49:11;;;;;;;13.75;2.08;;;15.80;99.90;;;;;;5031995;28;20026;-50
2023/10/19 03:51:41;;;;;;;16.60;2.15;;;15.90;99.90;;;;;;5030992;28;20040;-53
2023/10/19 03:54:21;;;;;;;10.77;2.03;;;15.90;99.90;;;;;;5028621;28;20516;-49
2023/10/19 03:56:50;;;;;;;14.68;1.80;;;15.90;99.90;;;;;;5030993;28;20396;-55
2023/10/19 03:59:17;;;;;;;13.07;2.88;;;15.90;99.90;;;;;;5031502;28;20026;-47
2023/10/19 04:01:43;;;;;;;20.23;2.75;;;15.90;99.90;;;;;;5030954;28;20034;-52
2023/10/19 04:04:09;;;;;;;17.35;2.22;;;15.90;99.90;;;;;;5023531;28;20032;-51
2023/10/19 04:06:35;;;;;;;15.80;2.40;;;15.90;99.90;;;;;;5029643;28;20511;-52
2023/10/19 04:09:04;;;;;;;12.45;3.22;;;15.90;99.90;;;;;;5026794;28;20034;-50
2023/10/19 04:11:32;;;;;;;7.90;1.52;;;15.90;99.90;;;;;;5025812;28;20120;-54
2023/10/19 04:14:03;;;;;;;8.35;1.33;;;15.90;99.90;;;;;;5030717;28;20038;-55
2023/10/19 04:16:30;;;;;;;14.18;2.60;;;15.90;99.90;;;;;;5031268;28;20378;-56
2023/10/19 04:18:55;;;;;;;17.63;1.90;;;15.90;99.90;;;;;;5029625;28;20030;-53
2023/10/19 04:21:21;;;;;;;6.25;1.80;;;15.90;99.90;;;;;;5029950;28;20076;-55
2023/10/19 04:23:46;;;;;;;12.93;2.65;;;15.90;99.90;;;;;;5028967;28;20112;-53
2023/10/19 04:26:13;;;;;;;19.25;3.13;;;15.90;99.90;;;;;;5029279;28;20045;-56
2023/10/19 04:28:49;;;;;;;17.48;3.28;;;15.90;99.90;;;;;;5029880;28;20036;-55
2023/10/19 04:31:19;;;;;;;15.60;2.55;;;15.90;99.90;;;;;;5029218;28;20037;-52
2023/10/19 04:33:49;;;;;;;;;;;15.90;99.90;;;;;;5031426;28;20041;-53
2023/10/19 04:36:16;;;;;;;14.27;2.00;;;15.90;99.90;;;;;;5022112;28;20356;-53
2023/10/19 04:38:43;;;;;;;10.07;2.15;;;15.90;99.90;;;;;;5023144;28;20033;-53
2023/10/19 04:41:10;;;;;;;16.60;2.58;;;15.80;99.90;;;;;;5020306;28;20029;-46
2023/10/19 04:43:37;;;;;;;13.88;2.55;;;15.90;99.90;;;;;;5024609;28;20109;-49
2023/10/19 04:46:12;;;;;;;9.90;2.30;;;15.80;99.90;;;;;;5029575;28;20032;-52
2023/10/19 04:48:39;;;;;;;22.63;3.08;;;15.80;99.90;;;;;;5018489;28;20025;-48
2023/10/19 04:51:07;;;;;;;15.25;2.40;;;15.80;99.90;;;;;;5030421;28;20037;-50
2023/10/19 04:53:32;;;;;;;12.32;2.30;;;15.80;99.90;;;;;;5022943;28;20033;-48
2023/10/19 04:56:00;;;;;;;19.10;2.53;;;15.80;99.90;;;;;;5029156;28;20144;-50
2023/10/19 04:58:29;;;;;;;12.32;2.00;;;15.80;99.90;;;;;;5030687;28;20021;-51
2023/10/19 05:00:55;;;;;;;13.52;3.28;;;15.80;99.90;;;;;;5030754;28;20029;-46
2023/10/19 05:03:21;;;;;;;10.07;2.28;;;15.90;99.90;;;;;;5021867;28;20085;-52
2023/10/19 05:05:47;;;;;;;12.98;2.10;;;15.90;99.90;;;;;;5027616;28;20057;-52
2023/10/19 05:08:12;;;;;;;11.90;2.55;;;15.80;99.90;;;;;;5030510;28;20052;-56
2023/10/19 05:10:38;;;;;;;21.55;3.15;;;15.80;99.90;;;;;;5030528;28;20415;-48
2023/10/19 05:13:04;;;;;;;14.43;1.88;;;15.90;99.90;;;;;;5015697;28;20022;-46
2023/10/19 05:15:30;;;;;;;15.10;2.33;;;15.90;99.90;;;;;;5028971;28;20025;-47
2023/10/19 05:17:56;;;;;;;10.70;2.10;;;15.90;99.90;;;;;;5030360;28;20233;-52
2023/10/19 05:20:21;;;;;;;7.57;1.85;;;15.90;99.90;;;;;;5028782;28;20076;-51
2023/10/19 05:22:47;;;;;;;12.57;2.42;;;15.90;99.90;;;;;;5015158;28;20049;-51
2023/10/19 05:25:13;;;;;;;12.48;1.67;;;15.90;99.90;;;;;;5024904;28;20057;-49
2023/10/19 05:27:39;;;;;;;13.05;2.35;;;15.90;99.90;;;;;;5024426;28;20026;-51
2023/10/19 05:30:05;;;;;;;12.77;3.70;;;15.80;99.90;;;;;;5030393;28;20041;-53
2023/10/19 05:32:31;;;;;;;14.38;2.58;;;15.80;99.90;;;;;;5025414;28;20076;-55
2023/10/19 05:34:57;;;;;;;9.13;1.88;;;15.80;99.90;;;;;;5029968;28;20053;-51
2023/10/19 05:37:23;;;;;;;12.02;2.47;;;15.80;99.90;;;;;;5025985;28;20021;-51
2023/10/19 05:39:51;;;;;;;14.38;2.90;;;15.80;99.90;;;;;;5028825;28;20033;-47
2023/10/19 05:42:17;;;;;;;18.83;2.38;;;15.80;99.90;;;;;;5032540;28;20074;-50
2023/10/19 05:44:43;;;;;;;12.43;2.25;;;15.80;99.90;;;;;;5033740;28;20439;-53
2023/10/19 05:47:08;;;;;;;10.93;2.30;;;15.80;99.90;;;;;;5032676;28;20029;-53
2023/10/19 05:49:34;;;;;;;15.43;2.83;;;15.80;99.90;;;;;;5028539;28;20029;-54
2023/10/19 05:52:00;;;;;;;14.90;2.92;;;15.80;99.90;;;;;;5033752;28;20029;-51
2023/10/19 05:54:26;;;;;;;11.45;2.38;;;15.80;99.90;;;;;;5028500;28;20030;-54
2023/10/19 05:56:52;;;;;;;11.60;2.05;;;15.80;99.90;;;;;;5033781;28;20025;-52
2023/10/19 05:59:18;;;;;;;12.18;2.10;;;15.80;99.90;;;;;;5031011;28;20030;-56
2023/10/19 06:01:47;;;;;;;17.13;3.25;;;15.80;99.90;;;;;;5033592;28;20431;-50
2023/10/19 06:04:13;;;;;;;13.35;2.25;;;15.80;99.90;;;;;;5033631;28;20013;-50
2023/10/19 06:06:39;;;;;;;9.73;1.95;;;15.90;99.90;;;;;;5029665;28;20040;-53
2023/10/19 06:09:11;;;;;;;13.27;2.42;;;15.90;99.90;;;;;;5033599;28;20026;-54
2023/10/19 06:11:42;;;;;;;13.98;2.47;;;15.90;99.90;;;;;;5033456;28;20042;-55
2023/10/19 06:14:09;;;;;;;14.68;2.10;;;15.80;99.90;;;;;;5032377;28;20164;-54
2023/10/19 06:16:35;;;;;;;17.38;2.67;;;15.80;99.90;;;;;;5030616;28;20047;-49
2023/10/19 06:19:01;;;;;;;14.82;2.40;;;15.90;99.90;;;;;;5032986;28;20459;-49
2023/10/19 06:21:26;;;;;;;17.00;1.92;;;15.80;99.90;;;;;;5033464;28;20030;-52
2023/10/19 06:23:53;;;;;;;11.43;1.95;;;15.90;99.90;;;;;;5033428;28;20147;-51
2023/10/19 06:26:19;;;;;;;8.52;1.70;;;15.90;99.90;;;;;;5027260;28;20021;-49
2023/10/19 06:28:45;;;;;;;11.82;2.70;;;15.90;99.90;;;;;;5028013;28;20083;-53
2023/10/19 06:31:11;;;;;;;6.85;1.50;;;15.90;99.90;;;;;;5032391;28;20037;-51
2023/10/19 06:33:41;;;;;;;12.25;1.73;;;15.90;99.90;;;;;;5033055;28;20044;-48
2023/10/19 06:36:06;;;;;;;15.15;2.10;;;15.90;99.90;;;;;;5025236;28;20068;-54
2023/10/19 06:38:32;;;;;;;14.95;2.33;;;15.90;99.90;;;;;;5031096;28;20068;-54
2023/10/19 06:40:59;;;;;;;8.45;2.35;;;15.90;99.90;;;;;;5029202;28;20030;-49
2023/10/19 06:43:28;;;;;;;12.27;2.03;;;15.90;99.90;;;;;;5035514;28;20038;-53
2023/10/19 06:45:55;;;;;;;10.20;2.55;;;15.90;99.90;;;;;;5030693;28;20025;-49
2023/10/19 06:48:20;;;;;;;9.80;2.08;;;15.90;99.90;;;;;;5032447;28;20083;-50
2023/10/19 06:50:46;;;;;;;8.95;1.80;;;15.80;99.90;;;;;;5035302;28;20492;-55
2023/10/19 06:53:12;;;;;;;15.93;2.70;;;15.90;99.90;;;;;;5029482;28;20025;-56
2023/10/19 06:55:37;;;;;;;6.45;1.08;;;15.90;99.90;;;;;;5038041;28;20026;-51
2023/10/19 06:58:04;;;;;;;9.15;1.98;;;15.90;99.90;;;;;;5032455;28;20116;-50
2023/10/19 07:00:30;;;;;;;8.18;1.70;;;15.90;99.90;;;;;;5034290;28;20059;-47
2023/10/19 07:03:00;;;;;;;7.57;1.63;;;15.90;99.90;;;;;;5027391;28;20026;-48
2023/10/19 07:05:29;;;;;;;10.50;1.48;;;15.90;99.90;;;;;;5029023;28;20029;-49
2023/10/19 07:07:56;;;;;;;5.22;1.15;;;15.90;99.90;;;;;;5024976;28;20052;-46
2023/10/19 07:10:23;;;;;;;10.90;2.45;;;15.90;99.90;;;;;;5023030;28;20451;-49
2023/10/19 07:12:53;;;;;;;7.75;1.77;;;15.90;99.90;;;;;;5032056;28;20121;-51
2023/10/19 07:15:19;;;;;;;7.53;1.42;;;15.90;99.90;;;;;;5030971;28;20076;-52
2023/10/19 07:17:50;;;;;;;10.13;2.03;;;15.90;99.90;;;;;;5032252;28;20449;-49
2023/10/19 07:20:27;;;;;;;13.18;2.10;;;15.90;99.90;;;;;;5028841;28;20037;-54
2023/10/19 07:22:56;;;;;;;11.13;2.97;;;15.90;99.90;;;;;;5031917;28;20312;-52
2023/10/19 07:25:22;;;;;;;;;;;15.90;99.90;;;;;;5031063;28;20398;-51
2023/10/19 07:27:52;;;;;;;10.27;1.90;;;15.90;99.90;;;;;;5030098;28;19909;-50
2023/10/19 07:30:21;;;;;;;;;;;16.00;99.90;;;;;;5029625;28;20029;-52
2023/10/19 07:32:59;;;;;;;8.40;1.92;;;16.00;99.90;;;;;;5028677;28;19925;-49
2023/10/19 07:35:26;;;;;;;10.60;1.70;;;16.00;99.90;;;;;;5021163;28;20104;-53
2023/10/19 07:37:52;;;;;;;11.00;1.70;;;16.00;99.90;;;;;;5032064;28;20734;-52
2023/10/19 07:40:18;;;;;;;8.32;1.48;;;16.00;99.90;;;;;;5031997;28;20025;-52
2023/10/19 07:42:49;;;;;;;6.45;2.60;;;16.10;99.90;;;;;;5032145;28;20033;-48
2023/10/19 07:45:15;;;;;;;7.88;1.45;;;16.10;99.90;;;;;;5031297;28;20510;-55
2023/10/19 07:47:41;;;;;;;10.15;1.75;;;16.10;99.90;;;;;;5030758;28;20064;-52
2023/10/19 07:50:17;;;;;;;10.20;1.75;;;16.10;99.90;;;;;;5026825;28;20059;-47
2023/10/19 07:52:48;;;;;;;7.57;2.20;;;16.10;99.90;;;;;;5026183;28;20104;-49
2023/10/19 07:55:14;;;;;;;6.03;1.13;;;16.20;99.90;;;;;;5029358;28;20026;-54
2023/10/19 07:57:42;;;;;;;5.75;1.38;;;16.20;99.90;;;;;;5030040;28;20021;-48
2023/10/19 08:00:14;;;;;;;8.23;1.98;;;16.30;99.90;;;;;;5024950;28;20037;-50
2023/10/19 08:02:46;;;;;;;12.00;2.35;;;16.30;99.90;;;;;;5030919;28;20070;-49
2023/10/19 08:05:13;;;;;;;9.30;2.20;;;16.30;99.90;;;;;;5028497;28;20033;-51
2023/10/19 08:07:42;;;;;;;6.43;1.77;;;16.40;99.90;;;;;;5031398;28;20025;-48
2023/10/19 08:10:10;;;;;;;;;;;16.40;99.90;;;;;;5031459;28;20095;-48
2023/10/19 08:12:36;;;;;;;10.00;1.83;;;16.40;99.90;;;;;;5031534;28;19971;-48
2023/10/19 08:15:03;;;;;;;10.88;1.90;;;16.40;99.90;;;;;;5027654;28;20152;-48
2023/10/19 08:17:29;;;;;;;9.02;1.77;;;16.40;99.90;;;;;;5027536;28;20091;-52
2023/10/19 08:19:56;;;;;;;9.55;1.90;;;16.40;99.90;;;;;;5030335;28;20018;-53
2023/10/19 08:22:23;;;;;;;11.30;1.95;;;16.40;99.90;;;;;;5028900;28;20025;-52
2023/10/19 08:24:49;;;;;;;7.38;2.90;;;16.40;99.90;;;;;;5027631;28;20026;-47
2023/10/19 08:27:17;;;;;;;8.23;1.83;;;16.40;99.90;;;;;;5029595;28;20037;-55
2023/10/19 08:29:43;;;;;;;6.22;1.77;;;16.40;99.90;;;;;;5023254;28;20033;-49
2023/10/19 08:32:09;;;;;;;6.53;1.50;;;16.40;99.90;;;;;;5025469;28;20047;-48
2023/10/19 08:34:39;;;;;;;8.43;1.77;;;16.40;99.90;;;;;;5029704;28;20044;-50
2023/10/19 08:37:05;;;;;;;10.45;2.47;;;16.40;99.90;;;;;;5031040;28;20435;-50
2023/10/19 08:39:36;;;;;;;11.32;2.15;;;16.40;99.90;;;;;;5028591;28;20017;-48
2023/10/19 08:42:04;;;;;;;10.30;1.95;;;16.40;99.90;;;;;;5030986;28;20037;-52
2023/10/19 08:44:30;;;;;;;6.95;1.85;;;16.40;99.90;;;;;;5030480;28;20095;-53
2023/10/19 08:46:57;;;;;;;11.95;1.80;;;16.40;99.90;;;;;;5030922;28;20472;-50
2023/10/19 08:49:23;;;;;;;5.72;1.33;;;16.40;99.90;;;;;;5030713;28;20029;-49
2023/10/19 08:51:51;;;;;;;10.55;1.65;;;16.40;99.90;;;;;;5030619;28;20029;-50
2023/10/19 08:54:17;;;;;;;6.35;1.42;;;16.40;99.90;;;;;;5030679;28;20400;-52
2023/10/19 08:56:44;;;;;;;12.15;2.22;;;16.40;99.90;;;;;;5029022;28;20026;-52
2023/10/19 08:59:11;;;;;;;7.35;1.60;;;16.40;99.90;;;;;;5020600;28;20135;-51
2023/10/19 09:01:37;;;;;;;8.60;1.40;;;16.50;99.90;;;;;;5026611;28;20026;-47
2023/10/19 09:04:07;;;;;;;6.35;1.70;;;16.50;99.90;;;;;;5024846;28;20025;-49
2023/10/19 09:06:42;;;;;;;7.65;1.67;;;16.60;99.90;;;;;;5021824;28;20018;-48
2023/10/19 09:09:19;;;;;;;9.40;1.88;;;16.60;99.90;;;;;;5026420;28;20068;-53
2023/10/19 09:11:46;;;;;;;8.38;1.50;;;16.70;99.90;;;;;;5028349;28;20037;-47
2023/10/19 09:14:13;;;;;;;6.85;1.73;;;16.70;99.90;;;;;;5029468;28;20018;-49
2023/10/19 09:16:57;;;;;;;6.50;1.40;;;16.80;99.90;;;;;;5028399;28;20029;-52
2023/10/19 09:19:41;;;;;;;6.70;1.48;;;16.80;99.90;;;;;;5028947;28;20026;-51
2023/10/19 09:22:08;;;;;;;12.25;1.77;;;16.80;99.90;;;;;;5029455;28;20067;-46
2023/10/19 09:24:37;;;;;;;7.60;1.50;;;16.80;99.90;;;;;;5029800;28;20512;-45
2023/10/19 09:27:05;;;;;;;9.27;1.85;;;16.70;99.90;;;;;;5030389;28;20029;-47
2023/10/19 09:29:31;;;;;;;11.37;2.40;;;16.70;99.90;;;;;;5027691;28;20076;-52
2023/10/19 09:32:03;;;;;;;7.10;1.55;;;16.70;99.90;;;;;;5030387;28;20524;-51
2023/10/19 09:34:32;;;;;;;10.23;1.50;;;16.70;99.90;;;;;;5028118;28;20025;-50
2023/10/19 09:37:00;;;;;;;7.95;1.52;;;16.80;99.90;;;;;;5028651;28;20025;-47
2023/10/19 09:39:36;;;;;;;13.57;1.55;;;16.90;99.90;;;;;;5028379;28;20114;-46
2023/10/19 09:42:10;;;;;;;5.03;1.85;;;16.90;99.90;;;;;;5029272;28;20096;-48
2023/10/19 09:44:44;;;;;;;7.57;1.52;;;17.00;99.90;;;;;;5028978;28;20101;-48
2023/10/19 09:47:12;;;;;;;7.82;1.33;;;17.10;99.90;;;;;;5029111;28;20113;-49
2023/10/19 09:49:44;;;;;;;5.93;1.75;;;17.00;99.90;;;;;;5024923;28;20681;-45
2023/10/19 09:52:13;;;;;;;6.28;1.40;;;17.00;99.90;;;;;;5022589;28;20034;-48
2023/10/19 09:54:48;;;;;;;4.32;1.33;;;16.90;99.90;;;;;;5030248;28;20025;-52
2023/10/19 09:57:19;;;;;;;12.90;2.10;;;16.90;99.90;;;;;;5029826;28;20029;-47
2023/10/19 09:59:50;;;;;;;9.93;1.90;;;16.80;99.90;;;;;;5024214;28;20455;-50
2023/10/19 10:02:17;;;;;;;8.13;1.60;;;16.80;99.90;;;;;;5029293;28;20029;-49
2023/10/19 10:04:47;;;;;;;7.15;1.83;;;16.80;99.90;;;;;;5029742;28;20025;-55
2023/10/19 10:07:13;;;;;;;13.52;1.90;;;16.80;99.90;;;;;;5029907;28;20029;-53
2023/10/19 10:09:43;;;;;;;6.70;1.30;;;16.80;99.90;;;;;;5029169;28;20021;-54
2023/10/19 10:12:23;;;;;;;6.82;1.30;;;16.80;99.90;;;;;;5029562;28;20534;-52
2023/10/19 10:14:59;;;;;;;6.25;1.15;;;16.80;99.90;;;;;;5029561;28;20072;-56
2023/10/19 10:17:26;;;;;;;6.25;1.58;;;16.80;99.90;;;;;;5029740;28;20037;-56
2023/10/19 10:20:17;;;;;;;14.93;1.50;;;16.90;99.90;;;;;;5029399;28;20392;-50
2023/10/19 10:22:43;;;;;;;7.30;1.60;;;17.00;99.90;;;;;;5024282;28;20037;-56
2023/10/19 10:25:27;;;;;;;8.57;1.25;;;17.00;99.90;;;;;;5029472;28;20059;-51
2023/10/19 10:27:54;;;;;;;5.50;1.40;;;17.00;99.90;;;;;;5032346;28;20437;-53
2023/10/19 10:30:20;;;;;;;5.47;1.25;;;17.00;99.90;;;;;;5033061;28;20492;-53
2023/10/19 10:32:47;;;;;;;7.20;1.20;;;17.00;99.90;;;;;;5032863;28;20050;-49
2023/10/19 10:35:41;;;;;;;7.28;1.77;;;16.90;99.90;;;;;;5032938;28;20025;-54
2023/10/19 10:38:15;;;;;;;6.88;1.17;;;16.90;99.90;;;;;;5033082;28;20121;-48
2023/10/19 10:40:48;;;;;;;7.03;1.40;;;16.80;99.90;;;;;;5033119;28;20025;-55
2023/10/19 10:43:18;;;;;;;6.85;1.30;;;16.80;99.90;;;;;;5032926;28;20082;-57
2023/10/19 10:45:43;;;;;;;4.78;1.10;;;16.90;99.90;;;;;;5033284;28;20385;-56
2023/10/19 10:48:17;;;;;;;12.40;1.50;;;17.00;99.90;;;;;;5027051;28;20033;-56
2023/10/19 10:50:45;;;;;;;7.57;1.67;;;17.10;99.90;;;;;;5027509;28;20087;-51
2023/10/19 10:53:11;;;;;;;8.93;1.25;;;17.30;99.90;;;;;;5032830;28;20026;-50
2023/10/19 10:55:38;;;;;;;9.02;1.27;;;17.40;99.90;;;;;;5061088;28;20510;-47
2023/10/19 10:58:04;;;;;;;10.18;1.70;;;17.60;99.90;;;;;;5032579;28;20031;-46
2023/10/19 11:00:32;;;;;;;4.57;0.93;;;17.70;99.90;;;;;;5033041;28;20087;-59
2023/10/19 11:03:04;;;;;;;9.48;1.15;;;17.70;99.90;;;;;;5032773;28;20030;-54
2023/10/19 11:05:35;;;;;;;8.18;1.58;;;17.70;99.90;;;;;;5032825;28;20030;-46
2023/10/19 11:08:13;;;;;;;10.60;1.45;;;17.70;99.90;;;;;;5032734;28;20025;-47
2023/10/19 11:10:42;;;;;;;6.07;1.02;;;17.70;99.90;;;;;;5032618;28;20041;-53
2023/10/19 11:13:13;;;;;;;6.00;1.45;;;17.70;99.90;;;;;;5032711;28;20112;-46
2023/10/19 11:15:47;;;;;;;4.75;1.15;;;17.70;99.90;;;;;;5029862;28;20622;-46
2023/10/19 11:18:32;;;;;;;5.10;1.38;;;17.70;99.90;;;;;;5031669;28;20036;-59
2023/10/19 11:20:59;;;;;;;8.23;1.30;;;17.70;99.90;;;;;;5030485;28;20147;-49
2023/10/19 11:24:01;;;;;;;4.50;1.10;;;17.80;99.90;;;;;;5032602;28;20022;-54
2023/10/19 11:26:27;;;;;;;5.70;1.25;;;18.10;99.90;;;;;;5020277;28;20476;-53
2023/10/19 11:29:01;;;;;;;3.63;1.00;;;18.40;99.90;;;;;;5029960;28;20033;-49
2023/10/19 11:31:27;;;;;;;9.40;1.38;;;18.20;99.90;;;;;;5020970;28;20037;-50
2023/10/19 11:33:58;;;;;;;6.32;1.15;;;18.00;99.90;;;;;;5032040;28;20590;-52
2023/10/19 11:36:24;;;;;;;9.05;1.70;;;17.90;99.90;;;;;;5032042;28;20053;-55
2023/10/19 11:38:52;;;;;;;6.93;1.42;;;17.70;99.90;;;;;;5031606;28;20025;-51
2023/10/19 11:41:17;;;;;;;3.97;1.13;;;17.70;99.90;;;;;;5031956;28;20021;-48
2023/10/19 11:43:45;;;;;;;8.20;1.27;;;17.60;99.90;;;;;;5031948;28;20378;-52
2023/10/19 11:46:12;;;;;;;10.60;1.27;;;17.60;99.90;;;;;;5032073;28;20041;-54
2023/10/19 11:48:39;;;;;;;8.60;1.70;;;17.60;99.90;;;;;;5032007;28;20040;-59
2023/10/19 11:51:06;;;;;;;7.18;1.45;;;17.60;99.90;;;;;;5031740;28;20041;-56
2023/10/19 11:53:36;;;;;;;6.18;1.17;;;17.50;99.90;;;;;;5020683;28;20036;-48
2023/10/19 11:56:05;;;;;;;8.10;1.50;;;17.50;99.90;;;;;;5031512;28;20096;-49
2023/10/19 11:58:35;;;;;;;5.00;1.13;;;17.40;99.90;;;;;;5031539;28;20034;-50
2023/10/19 12:01:07;;;;;;;;;;;17.40;99.90;;;;;;5031949;28;20026;-50
2023/10/19 12:03:35;;;;;;;7.20;1.45;;;17.40;99.90;;;;;;5031727;28;19909;-46
2023/10/19 12:06:04;;;;;;;10.88;1.15;;;17.40;99.90;;;;;;5031602;28;20480;-47
2023/10/19 12:08:29;;;;;;;6.65;1.35;;;17.30;99.90;;;;;;5031575;28;20029;-56
2023/10/19 12:10:55;;;;;;;9.65;1.75;;;17.30;99.90;;;;;;5031314;28;20052;-49
2023/10/19 12:13:20;;;;;;;5.53;1.25;;;17.20;99.90;;;;;;5031587;28;20128;-49
2023/10/19 12:15:51;;;;;;;5.93;1.50;;;17.10;99.90;;;;;;5031548;28;20546;-45
2023/10/19 12:18:19;;;;;;;5.72;1.35;;;17.10;99.90;;;;;;5031487;28;20025;-48
2023/10/19 12:20:45;;;;;;;6.50;1.13;;;17.10;99.90;;;;;;5031522;28;20033;-49
2023/10/19 12:23:11;;;;;;;7.07;1.52;;;17.10;99.90;;;;;;5031215;28;20419;-45
2023/10/19 12:25:38;;;;;;;6.57;1.17;;;17.20;99.90;;;;;;5031243;28;20128;-49
2023/10/19 12:28:04;;;;;;;4.88;1.55;;;17.50;99.90;;;;;;5031239;28;20028;-50
2023/10/19 12:30:36;;;;;;;6.88;1.60;;;17.50;99.90;;;;;;5031333;28;20038;-46
2023/10/19 12:33:01;;;;;;;4.93;0.98;;;17.60;99.90;;;;;;5031103;28;20042;-47
2023/10/19 12:35:49;;;;;;;5.93;1.33;;;17.80;99.90;;;;;;5026637;28;20077;-54
2023/10/19 12:38:16;;;;;;;13.18;1.83;;;18.00;99.90;;;;;;5026461;28;20080;-48
2023/10/19 12:40:44;;;;;;;9.95;1.23;;;18.20;99.90;;;;;;5026485;28;20032;-50
2023/10/19 12:43:10;;;;;;;8.30;1.45;;;18.50;99.90;;;;;;5029288;28;20473;-43
2023/10/19 12:45:38;;;;;;;5.55;1.20;;;18.50;99.90;;;;;;5035701;28;20088;-44
2023/10/19 12:48:05;;;;;;;8.57;1.47;;;18.40;99.90;;;;;;5027780;28;20048;-44
2023/10/19 12:50:30;;;;;;;17.50;1.58;;;18.40;99.90;;;;;;5020457;28;20674;-48
2023/10/19 12:52:57;;;;;;;8.40;1.50;;;18.40;99.90;;;;;;5027843;28;20097;-48
2023/10/19 12:55:26;;;;;;;7.43;1.67;;;18.50;99.90;;;;;;5028816;28;20075;-47
2023/10/19 12:57:52;;;;;;;7.55;1.48;;;18.50;99.90;;;;;;5017934;28;20041;-51
2023/10/19 13:00:35;;;;;;;2.58;1.10;;;18.40;99.90;;;;;;5028673;28;20052;-51
2023/10/19 13:03:05;;;;;;;7.03;1.33;;;18.40;99.90;;;;;;5019326;28;20025;-51
2023/10/19 13:05:34;;;;;;;7.47;1.50;;;18.30;99.90;;;;;;5025126;28;20022;-49
2023/10/19 13:08:13;;;;;;;12.20;1.55;;;18.20;99.90;;;;;;5009981;28;20512;-51
2023/10/19 13:10:42;;;;;;;6.30;1.17;;;18.20;99.90;;;;;;5028666;28;20404;-49